sensor_id;sensor_type;location;lat;lon;timestamp;P1;durP1;ratioP1;P2;durP2;ratioP2
16314;SDS011;8266;52.150;4.768;2024-03-23T00:53:11;0.10;;;0.10;;
16314;SDS011;8266;52.150;4.768;2024-03-23T00:55:38;0.10;;;0.10;;
16314;SDS011;8266;52.150;4.768;2024-03-23T00:58:05;0.10;;;0.10;;
16314;SDS011;8266;52.150;4.768;2024-03-23T01:00:31;0.10;;;0.10;;
16314;SDS011;8266;52.150;4.768;2024-03-23T01:02:58;0.17;;;0.17;;
16314;SDS011;8266;52.150;4.768;2024-03-23T01:05:24;0.13;;;0.13;;
16314;SDS011;8266;52.150;4.768;2024-03-23T01:07:51;0.10;;;0.10;;
16314;SDS011;8266;52.150;4.768;2024-03-23T01:10:18;0.20;;;0.20;;
16314;SDS011;8266;52.150;4.768;2024-03-23T01:12:48;0.10;;;0.10;;
16314;SDS011;8266;52.150;4.768;2024-03-23T01:15:17;0.10;;;0.10;;
16314;SDS011;8266;52.150;4.768;2024-03-23T01:17:44;0.10;;;0.10;;
16314;SDS011;8266;52.150;4.768;2024-03-23T01:20:10;0.15;;;0.15;;
16314;SDS011;8266;52.150;4.768;2024-03-23T01:22:37;0.10;;;0.10;;
16314;SDS011;8266;52.150;4.768;2024-03-23T01:25:03;0.10;;;0.10;;
16314;SDS011;8266;52.150;4.768;2024-03-23T01:27:32;0.10;;;0.10;;
16314;SDS011;8266;52.150;4.768;2024-03-23T01:29:58;0.10;;;0.10;;
16314;SDS011;8266;52.150;4.768;2024-03-23T01:32:24;0.10;;;0.10;;
16314;SDS011;8266;52.150;4.768;2024-03-23T01:35:28;0.10;;;0.10;;
16314;SDS011;8266;52.150;4.768;2024-03-23T01:38:13;0.10;;;0.10;;
16314;SDS011;8266;52.150;4.768;2024-03-23T01:40:44;0.10;;;0.10;;
16314;SDS011;8266;52.150;4.768;2024-03-23T01:43:31;0.10;;;0.10;;
16314;SDS011;8266;52.150;4.768;2024-03-23T01:49:27;0.13;;;0.13;;
16314;SDS011;8266;52.150;4.768;2024-03-23T01:59:07;0.20;;;0.20;;
16314;SDS011;8266;52.150;4.768;2024-03-23T02:01:35;0.10;;;0.10;;
16314;SDS011;8266;52.150;4.768;2024-03-23T02:04:01;0.10;;;0.10;;
16314;SDS011;8266;52.150;4.768;2024-03-23T02:06:28;0.20;;;0.20;;
16314;SDS011;8266;52.150;4.768;2024-03-23T02:08:54;0.20;;;0.20;;
16314;SDS011;8266;52.150;4.768;2024-03-23T02:11:21;0.20;;;0.20;;
16314;SDS011;8266;52.150;4.768;2024-03-23T02:13:49;0.10;;;0.10;;
16314;SDS011;8266;52.150;4.768;2024-03-23T02:16:18;0.10;;;0.10;;
16314;SDS011;8266;52.150;4.768;2024-03-23T02:18:44;0.20;;;0.20;;
16314;SDS011;8266;52.150;4.768;2024-03-23T02:24:28;0.13;;;0.13;;
16314;SDS011;8266;52.150;4.768;2024-03-23T02:26:56;0.10;;;0.10;;
16314;SDS011;8266;52.150;4.768;2024-03-23T02:35:39;0.10;;;0.10;;
16314;SDS011;8266;52.150;4.768;2024-03-23T02:45:13;0.13;;;0.13;;
16314;SDS011;8266;52.150;4.768;2024-03-23T07:18:01;0.10;;;0.10;;
16314;SDS011;8266;52.150;4.768;2024-03-23T07:20:28;0.10;;;0.10;;
16314;SDS011;8266;52.150;4.768;2024-03-23T07:22:55;0.00;;;0.00;;
16314;SDS011;8266;52.150;4.768;2024-03-23T07:25:22;0.00;;;0.00;;
16314;SDS011;8266;52.150;4.768;2024-03-23T07:27:50;0.10;;;0.10;;
16314;SDS011;8266;52.150;4.768;2024-03-23T07:30:17;0.10;;;0.10;;
16314;SDS011;8266;52.150;4.768;2024-03-23T07:32:44;0.10;;;0.10;;
16314;SDS011;8266;52.150;4.768;2024-03-23T07:35:12;0.10;;;0.10;;
16314;SDS011;8266;52.150;4.768;2024-03-23T07:37:40;0.10;;;0.10;;
16314;SDS011;8266;52.150;4.768;2024-03-23T07:40:15;0.10;;;0.10;;
16314;SDS011;8266;52.150;4.768;2024-03-23T07:42:41;0.10;;;0.10;;
16314;SDS011;8266;52.150;4.768;2024-03-23T07:45:11;0.10;;;0.10;;
16314;SDS011;8266;52.150;4.768;2024-03-23T07:47:37;0.10;;;0.10;;
16314;SDS011;8266;52.150;4.768;2024-03-23T07:50:07;0.10;;;0.10;;
16314;SDS011;8266;52.150;4.768;2024-03-23T07:52:54;0.10;;;0.10;;
16314;SDS011;8266;52.150;4.768;2024-03-23T07:55:24;0.10;;;0.10;;
16314;SDS011;8266;52.150;4.768;2024-03-23T07:57:51;0.00;;;0.00;;
16314;SDS011;8266;52.150;4.768;2024-03-23T08:00:24;0.00;;;0.00;;
16314;SDS011;8266;52.150;4.768;2024-03-23T08:02:51;0.00;;;0.00;;
16314;SDS011;8266;52.150;4.768;2024-03-23T08:05:21;0.00;;;0.00;;
16314;SDS011;8266;52.150;4.768;2024-03-23T08:07:50;0.00;;;0.00;;
16314;SDS011;8266;52.150;4.768;2024-03-23T08:10:31;0.00;;;0.00;;
16314;SDS011;8266;52.150;4.768;2024-03-23T08:13:04;0.00;;;0.00;;
16314;SDS011;8266;52.150;4.768;2024-03-23T08:15:31;0.00;;;0.00;;
16314;SDS011;8266;52.150;4.768;2024-03-23T08:17:59;0.00;;;0.00;;
16314;SDS011;8266;52.150;4.768;2024-03-23T08:20:27;0.00;;;0.00;;
16314;SDS011;8266;52.150;4.768;2024-03-23T08:22:54;0.00;;;0.00;;
16314;SDS011;8266;52.150;4.768;2024-03-23T08:25:20;0.10;;;0.10;;
16314;SDS011;8266;52.150;4.768;2024-03-23T08:27:47;0.00;;;0.00;;
16314;SDS011;8266;52.150;4.768;2024-03-23T08:30:13;0.00;;;0.00;;
16314;SDS011;8266;52.150;4.768;2024-03-23T08:32:40;0.00;;;0.00;;
16314;SDS011;8266;52.150;4.768;2024-03-23T08:35:07;0.00;;;0.00;;
16314;SDS011;8266;52.150;4.768;2024-03-23T08:37:36;0.00;;;0.00;;
16314;SDS011;8266;52.150;4.768;2024-03-23T08:40:02;0.00;;;0.00;;
16314;SDS011;8266;52.150;4.768;2024-03-23T08:42:32;0.10;;;0.10;;
16314;SDS011;8266;52.150;4.768;2024-03-23T08:44:58;0.00;;;0.00;;
16314;SDS011;8266;52.150;4.768;2024-03-23T08:47:33;0.00;;;0.00;;
16314;SDS011;8266;52.150;4.768;2024-03-23T08:50:00;0.00;;;0.00;;
16314;SDS011;8266;52.150;4.768;2024-03-23T08:52:28;0.00;;;0.00;;
16314;SDS011;8266;52.150;4.768;2024-03-23T08:54:56;0.00;;;0.00;;
16314;SDS011;8266;52.150;4.768;2024-03-23T08:57:25;0.10;;;0.10;;
16314;SDS011;8266;52.150;4.768;2024-03-23T08:59:51;0.10;;;0.10;;
16314;SDS011;8266;52.150;4.768;2024-03-23T09:02:18;0.00;;;0.00;;
16314;SDS011;8266;52.150;4.768;2024-03-23T09:04:44;0.10;;;0.10;;
16314;SDS011;8266;52.150;4.768;2024-03-23T09:07:13;0.10;;;0.10;;
16314;SDS011;8266;52.150;4.768;2024-03-23T09:09:44;0.00;;;0.00;;
16314;SDS011;8266;52.150;4.768;2024-03-23T09:12:13;0.10;;;0.10;;
16314;SDS011;8266;52.150;4.768;2024-03-23T09:14:39;0.00;;;0.00;;
16314;SDS011;8266;52.150;4.768;2024-03-23T09:17:06;0.08;;;0.08;;
16314;SDS011;8266;52.150;4.768;2024-03-23T09:19:35;0.05;;;0.05;;
16314;SDS011;8266;52.150;4.768;2024-03-23T09:22:02;0.08;;;0.08;;
16314;SDS011;8266;52.150;4.768;2024-03-23T09:24:29;0.00;;;0.00;;
16314;SDS011;8266;52.150;4.768;2024-03-23T09:26:57;0.00;;;0.00;;
16314;SDS011;8266;52.150;4.768;2024-03-23T09:29:24;0.00;;;0.00;;
16314;SDS011;8266;52.150;4.768;2024-03-23T09:31:51;0.00;;;0.00;;
16314;SDS011;8266;52.150;4.768;2024-03-23T09:34:17;0.05;;;0.05;;
16314;SDS011;8266;52.150;4.768;2024-03-23T09:36:44;0.00;;;0.00;;
16314;SDS011;8266;52.150;4.768;2024-03-23T09:39:10;0.10;;;0.10;;
16314;SDS011;8266;52.150;4.768;2024-03-23T09:41:38;0.10;;;0.10;;
16314;SDS011;8266;52.150;4.768;2024-03-23T09:44:04;0.00;;;0.00;;
16314;SDS011;8266;52.150;4.768;2024-03-23T09:46:34;0.00;;;0.00;;
16314;SDS011;8266;52.150;4.768;2024-03-23T09:49:01;0.00;;;0.00;;
16314;SDS011;8266;52.150;4.768;2024-03-23T09:51:29;0.10;;;0.10;;
16314;SDS011;8266;52.150;4.768;2024-03-23T09:53:55;0.10;;;0.10;;
16314;SDS011;8266;52.150;4.768;2024-03-23T09:56:23;0.00;;;0.00;;
16314;SDS011;8266;52.150;4.768;2024-03-23T09:58:49;0.10;;;0.10;;
16314;SDS011;8266;52.150;4.768;2024-03-23T10:01:16;0.00;;;0.00;;
16314;SDS011;8266;52.150;4.768;2024-03-23T10:03:44;0.00;;;0.00;;
16314;SDS011;8266;52.150;4.768;2024-03-23T10:06:12;0.00;;;0.00;;
16314;SDS011;8266;52.150;4.768;2024-03-23T10:08:38;0.10;;;0.10;;
16314;SDS011;8266;52.150;4.768;2024-03-23T10:11:12;0.00;;;0.00;;
16314;SDS011;8266;52.150;4.768;2024-03-23T10:13:41;0.00;;;0.00;;
16314;SDS011;8266;52.150;4.768;2024-03-23T10:16:08;0.10;;;0.10;;
16314;SDS011;8266;52.150;4.768;2024-03-23T10:18:37;0.05;;;0.05;;
16314;SDS011;8266;52.150;4.768;2024-03-23T10:21:09;0.00;;;0.00;;
16314;SDS011;8266;52.150;4.768;2024-03-23T10:23:40;0.00;;;0.00;;
16314;SDS011;8266;52.150;4.768;2024-03-23T10:26:18;0.00;;;0.00;;
16314;SDS011;8266;52.150;4.768;2024-03-23T10:28:56;0.00;;;0.00;;
16314;SDS011;8266;52.150;4.768;2024-03-23T10:31:37;0.00;;;0.00;;
16314;SDS011;8266;52.150;4.768;2024-03-23T10:34:09;0.00;;;0.00;;
16314;SDS011;8266;52.150;4.768;2024-03-23T10:36:49;0.00;;;0.00;;
16314;SDS011;8266;52.150;4.768;2024-03-23T10:39:22;0.03;;;0.03;;
16314;SDS011;8266;52.150;4.768;2024-03-23T10:41:58;0.00;;;0.00;;
16314;SDS011;8266;52.150;4.768;2024-03-23T10:44:30;0.10;;;0.10;;
16314;SDS011;8266;52.150;4.768;2024-03-23T10:47:01;0.00;;;0.00;;
16314;SDS011;8266;52.150;4.768;2024-03-23T10:49:33;0.00;;;0.00;;
16314;SDS011;8266;52.150;4.768;2024-03-23T10:52:10;0.00;;;0.00;;
16314;SDS011;8266;52.150;4.768;2024-03-23T10:54:36;0.00;;;0.00;;
16314;SDS011;8266;52.150;4.768;2024-03-23T10:57:08;0.00;;;0.00;;
16314;SDS011;8266;52.150;4.768;2024-03-23T10:59:38;0.00;;;0.00;;
16314;SDS011;8266;52.150;4.768;2024-03-23T11:02:06;0.10;;;0.10;;
16314;SDS011;8266;52.150;4.768;2024-03-23T11:04:33;0.00;;;0.00;;
16314;SDS011;8266;52.150;4.768;2024-03-23T11:07:01;0.00;;;0.00;;
16314;SDS011;8266;52.150;4.768;2024-03-23T11:09:41;0.00;;;0.00;;
16314;SDS011;8266;52.150;4.768;2024-03-23T11:12:29;0.00;;;0.00;;
16314;SDS011;8266;52.150;4.768;2024-03-23T11:15:01;0.00;;;0.00;;
16314;SDS011;8266;52.150;4.768;2024-03-23T11:17:30;0.10;;;0.10;;
16314;SDS011;8266;52.150;4.768;2024-03-23T11:19:57;0.03;;;0.03;;
16314;SDS011;8266;52.150;4.768;2024-03-23T11:22:44;0.00;;;0.00;;
16314;SDS011;8266;52.150;4.768;2024-03-23T11:25:13;0.00;;;0.00;;
16314;SDS011;8266;52.150;4.768;2024-03-23T11:27:41;0.00;;;0.00;;
16314;SDS011;8266;52.150;4.768;2024-03-23T11:30:11;0.00;;;0.00;;
16314;SDS011;8266;52.150;4.768;2024-03-23T11:32:39;0.00;;;0.00;;
16314;SDS011;8266;52.150;4.768;2024-03-23T11:35:05;0.10;;;0.10;;
16314;SDS011;8266;52.150;4.768;2024-03-23T11:37:35;0.10;;;0.10;;
16314;SDS011;8266;52.150;4.768;2024-03-23T11:42:46;0.00;;;0.00;;
16314;SDS011;8266;52.150;4.768;2024-03-23T11:45:12;0.00;;;0.00;;
16314;SDS011;8266;52.150;4.768;2024-03-23T11:47:41;0.00;;;0.00;;
16314;SDS011;8266;52.150;4.768;2024-03-23T11:50:07;0.00;;;0.00;;
16314;SDS011;8266;52.150;4.768;2024-03-23T11:52:35;0.00;;;0.00;;
16314;SDS011;8266;52.150;4.768;2024-03-23T11:55:04;0.00;;;0.00;;
16314;SDS011;8266;52.150;4.768;2024-03-23T11:57:34;0.00;;;0.00;;
16314;SDS011;8266;52.150;4.768;2024-03-23T12:00:00;0.00;;;0.00;;
16314;SDS011;8266;52.150;4.768;2024-03-23T12:02:27;0.10;;;0.10;;
16314;SDS011;8266;52.150;4.768;2024-03-23T12:04:53;0.00;;;0.00;;
16314;SDS011;8266;52.150;4.768;2024-03-23T12:07:20;0.05;;;0.05;;
16314;SDS011;8266;52.150;4.768;2024-03-23T12:09:47;0.00;;;0.00;;
16314;SDS011;8266;52.150;4.768;2024-03-23T12:12:41;0.00;;;0.00;;
16314;SDS011;8266;52.150;4.768;2024-03-23T12:15:07;0.00;;;0.00;;
16314;SDS011;8266;52.150;4.768;2024-03-23T12:17:36;0.00;;;0.00;;
16314;SDS011;8266;52.150;4.768;2024-03-23T12:20:02;0.00;;;0.00;;
16314;SDS011;8266;52.150;4.768;2024-03-23T12:22:30;0.00;;;0.00;;
16314;SDS011;8266;52.150;4.768;2024-03-23T12:24:56;0.00;;;0.00;;
16314;SDS011;8266;52.150;4.768;2024-03-23T12:27:23;0.00;;;0.00;;
16314;SDS011;8266;52.150;4.768;2024-03-23T12:29:51;0.00;;;0.00;;
16314;SDS011;8266;52.150;4.768;2024-03-23T12:32:21;0.00;;;0.00;;
16314;SDS011;8266;52.150;4.768;2024-03-23T12:34:47;0.00;;;0.00;;
16314;SDS011;8266;52.150;4.768;2024-03-23T12:37:14;0.00;;;0.00;;
16314;SDS011;8266;52.150;4.768;2024-03-23T12:39:42;0.00;;;0.00;;
16314;SDS011;8266;52.150;4.768;2024-03-23T12:42:12;0.00;;;0.00;;
16314;SDS011;8266;52.150;4.768;2024-03-23T12:44:38;0.00;;;0.00;;
16314;SDS011;8266;52.150;4.768;2024-03-23T12:47:11;0.00;;;0.00;;
16314;SDS011;8266;52.150;4.768;2024-03-23T12:49:43;0.00;;;0.00;;
16314;SDS011;8266;52.150;4.768;2024-03-23T12:52:11;0.00;;;0.00;;
16314;SDS011;8266;52.150;4.768;2024-03-23T12:54:38;0.00;;;0.00;;
16314;SDS011;8266;52.150;4.768;2024-03-23T12:57:06;0.00;;;0.00;;
16314;SDS011;8266;52.150;4.768;2024-03-23T12:59:32;0.05;;;0.05;;
16314;SDS011;8266;52.150;4.768;2024-03-23T13:02:00;0.10;;;0.10;;
16314;SDS011;8266;52.150;4.768;2024-03-23T13:04:31;0.00;;;0.00;;
16314;SDS011;8266;52.150;4.768;2024-03-23T13:07:16;0.00;;;0.00;;
16314;SDS011;8266;52.150;4.768;2024-03-23T13:11:38;0.00;;;0.00;;
16314;SDS011;8266;52.150;4.768;2024-03-23T13:13:10;0.10;;;0.10;;
16314;SDS011;8266;52.150;4.768;2024-03-23T13:15:51;0.00;;;0.00;;
16314;SDS011;8266;52.150;4.768;2024-03-23T13:18:18;0.00;;;0.00;;
16314;SDS011;8266;52.150;4.768;2024-03-23T13:20:56;0.00;;;0.00;;
16314;SDS011;8266;52.150;4.768;2024-03-23T13:23:23;0.00;;;0.00;;
16314;SDS011;8266;52.150;4.768;2024-03-23T13:25:52;0.00;;;0.00;;
16314;SDS011;8266;52.150;4.768;2024-03-23T13:28:19;0.00;;;0.00;;
16314;SDS011;8266;52.150;4.768;2024-03-23T13:30:52;0.00;;;0.00;;
16314;SDS011;8266;52.150;4.768;2024-03-23T13:33:19;0.00;;;0.00;;
16314;SDS011;8266;52.150;4.768;2024-03-23T13:35:49;0.00;;;0.00;;
16314;SDS011;8266;52.150;4.768;2024-03-23T13:38:18;0.00;;;0.00;;
16314;SDS011;8266;52.150;4.768;2024-03-23T13:40:53;0.00;;;0.00;;
16314;SDS011;8266;52.150;4.768;2024-03-23T13:43:21;0.00;;;0.00;;
16314;SDS011;8266;52.150;4.768;2024-03-23T13:45:48;0.00;;;0.00;;
16314;SDS011;8266;52.150;4.768;2024-03-23T13:48:19;0.00;;;0.00;;
16314;SDS011;8266;52.150;4.768;2024-03-23T13:50:47;0.00;;;0.00;;
16314;SDS011;8266;52.150;4.768;2024-03-23T13:53:41;0.08;;;0.08;;
16314;SDS011;8266;52.150;4.768;2024-03-23T13:56:13;0.00;;;0.00;;
16314;SDS011;8266;52.150;4.768;2024-03-23T13:58:57;0.00;;;0.00;;
16314;SDS011;8266;52.150;4.768;2024-03-23T14:01:26;0.00;;;0.00;;
16314;SDS011;8266;52.150;4.768;2024-03-23T14:03:57;0.00;;;0.00;;
16314;SDS011;8266;52.150;4.768;2024-03-23T14:06:26;0.00;;;0.00;;
16314;SDS011;8266;52.150;4.768;2024-03-23T14:09:06;0.00;;;0.00;;
16314;SDS011;8266;52.150;4.768;2024-03-23T14:11:42;0.00;;;0.00;;
16314;SDS011;8266;52.150;4.768;2024-03-23T14:14:09;0.00;;;0.00;;
16314;SDS011;8266;52.150;4.768;2024-03-23T14:16:45;0.00;;;0.00;;
16314;SDS011;8266;52.150;4.768;2024-03-23T14:19:40;0.00;;;0.00;;
16314;SDS011;8266;52.150;4.768;2024-03-23T14:22:18;0.00;;;0.00;;
16314;SDS011;8266;52.150;4.768;2024-03-23T14:28:34;0.00;;;0.00;;
16314;SDS011;8266;52.150;4.768;2024-03-23T14:31:34;0.00;;;0.00;;
16314;SDS011;8266;52.150;4.768;2024-03-23T14:34:05;0.00;;;0.00;;
16314;SDS011;8266;52.150;4.768;2024-03-23T15:14:19;0.10;;;0.10;;
16314;SDS011;8266;52.150;4.768;2024-03-23T15:58:55;0.10;;;0.10;;
16314;SDS011;8266;52.150;4.768;2024-03-23T16:04:47;0.00;;;0.00;;
16314;SDS011;8266;52.150;4.768;2024-03-23T16:07:35;0.00;;;0.00;;
16314;SDS011;8266;52.150;4.768;2024-03-23T16:10:08;0.10;;;0.10;;
16314;SDS011;8266;52.150;4.768;2024-03-23T16:12:38;0.10;;;0.10;;
16314;SDS011;8266;52.150;4.768;2024-03-23T16:15:15;0.00;;;0.00;;
16314;SDS011;8266;52.150;4.768;2024-03-23T16:21:33;0.10;;;0.10;;
16314;SDS011;8266;52.150;4.768;2024-03-23T16:24:17;0.03;;;0.03;;
16314;SDS011;8266;52.150;4.768;2024-03-23T16:27:06;0.10;;;0.10;;
16314;SDS011;8266;52.150;4.768;2024-03-23T16:33:00;0.10;;;0.10;;
16314;SDS011;8266;52.150;4.768;2024-03-23T16:35:31;0.10;;;0.10;;
16314;SDS011;8266;52.150;4.768;2024-03-23T16:38:43;0.10;;;0.10;;
16314;SDS011;8266;52.150;4.768;2024-03-23T16:41:07;0.10;;;0.10;;
16314;SDS011;8266;52.150;4.768;2024-03-23T16:43:43;0.10;;;0.10;;
16314;SDS011;8266;52.150;4.768;2024-03-23T16:52:26;0.10;;;0.10;;
16314;SDS011;8266;52.150;4.768;2024-03-23T16:55:04;0.05;;;0.05;;
16314;SDS011;8266;52.150;4.768;2024-03-23T16:57:33;0.10;;;0.10;;
16314;SDS011;8266;52.150;4.768;2024-03-23T17:00:13;0.03;;;0.03;;
16314;SDS011;8266;52.150;4.768;2024-03-23T17:02:53;0.00;;;0.00;;
16314;SDS011;8266;52.150;4.768;2024-03-23T17:05:23;0.10;;;0.10;;
16314;SDS011;8266;52.150;4.768;2024-03-23T17:07:49;0.10;;;0.10;;
16314;SDS011;8266;52.150;4.768;2024-03-23T17:10:26;0.10;;;0.10;;
16314;SDS011;8266;52.150;4.768;2024-03-23T17:13:04;0.10;;;0.10;;
16314;SDS011;8266;52.150;4.768;2024-03-23T17:15:41;0.10;;;0.10;;
16314;SDS011;8266;52.150;4.768;2024-03-23T17:18:13;0.03;;;0.03;;
16314;SDS011;8266;52.150;4.768;2024-03-23T17:20:47;0.10;;;0.10;;
16314;SDS011;8266;52.150;4.768;2024-03-23T17:23:22;0.10;;;0.10;;
16314;SDS011;8266;52.150;4.768;2024-03-23T17:25:56;0.10;;;0.10;;
16314;SDS011;8266;52.150;4.768;2024-03-23T17:28:34;0.10;;;0.10;;
16314;SDS011;8266;52.150;4.768;2024-03-23T17:31:03;0.10;;;0.10;;
16314;SDS011;8266;52.150;4.768;2024-03-23T17:33:43;0.10;;;0.10;;
16314;SDS011;8266;52.150;4.768;2024-03-23T17:36:10;0.10;;;0.10;;
16314;SDS011;8266;52.150;4.768;2024-03-23T17:38:36;0.10;;;0.10;;
16314;SDS011;8266;52.150;4.768;2024-03-23T17:41:04;0.10;;;0.10;;
16314;SDS011;8266;52.150;4.768;2024-03-23T17:43:30;0.10;;;0.10;;
16314;SDS011;8266;52.150;4.768;2024-03-23T17:46:00;0.10;;;0.10;;
16314;SDS011;8266;52.150;4.768;2024-03-23T17:48:26;0.10;;;0.10;;
16314;SDS011;8266;52.150;4.768;2024-03-23T17:51:05;0.10;;;0.10;;
16314;SDS011;8266;52.150;4.768;2024-03-23T17:53:36;0.10;;;0.10;;
16314;SDS011;8266;52.150;4.768;2024-03-23T17:56:06;0.10;;;0.10;;
16314;SDS011;8266;52.150;4.768;2024-03-23T17:58:47;0.15;;;0.15;;
16314;SDS011;8266;52.150;4.768;2024-03-23T18:01:20;0.10;;;0.10;;
16314;SDS011;8266;52.150;4.768;2024-03-23T18:03:50;0.10;;;0.10;;
16314;SDS011;8266;52.150;4.768;2024-03-23T18:06:21;0.10;;;0.10;;
16314;SDS011;8266;52.150;4.768;2024-03-23T18:08:47;0.10;;;0.10;;
16314;SDS011;8266;52.150;4.768;2024-03-23T18:11:15;0.10;;;0.10;;
16314;SDS011;8266;52.150;4.768;2024-03-23T18:13:44;0.10;;;0.10;;
16314;SDS011;8266;52.150;4.768;2024-03-23T18:16:11;0.00;;;0.00;;
16314;SDS011;8266;52.150;4.768;2024-03-23T18:18:37;0.10;;;0.10;;
16314;SDS011;8266;52.150;4.768;2024-03-23T18:21:04;0.10;;;0.10;;
16314;SDS011;8266;52.150;4.768;2024-03-23T18:23:31;0.10;;;0.10;;
16314;SDS011;8266;52.150;4.768;2024-03-23T18:25:58;0.00;;;0.00;;
16314;SDS011;8266;52.150;4.768;2024-03-23T18:28:24;0.00;;;0.00;;
16314;SDS011;8266;52.150;4.768;2024-03-23T18:31:00;0.10;;;0.10;;
16314;SDS011;8266;52.150;4.768;2024-03-23T18:33:56;0.10;;;0.10;;
16314;SDS011;8266;52.150;4.768;2024-03-23T18:36:23;0.03;;;0.03;;
16314;SDS011;8266;52.150;4.768;2024-03-23T18:38:51;0.10;;;0.10;;
16314;SDS011;8266;52.150;4.768;2024-03-23T18:41:18;0.13;;;0.13;;
16314;SDS011;8266;52.150;4.768;2024-03-23T18:43:45;0.10;;;0.10;;
16314;SDS011;8266;52.150;4.768;2024-03-23T18:46:13;0.10;;;0.10;;
16314;SDS011;8266;52.150;4.768;2024-03-23T18:48:42;0.10;;;0.10;;
16314;SDS011;8266;52.150;4.768;2024-03-23T18:51:09;0.10;;;0.10;;
16314;SDS011;8266;52.150;4.768;2024-03-23T18:53:35;0.10;;;0.10;;
16314;SDS011;8266;52.150;4.768;2024-03-23T18:56:05;0.10;;;0.10;;
16314;SDS011;8266;52.150;4.768;2024-03-23T18:58:31;0.10;;;0.10;;
16314;SDS011;8266;52.150;4.768;2024-03-23T19:01:00;0.10;;;0.10;;
16314;SDS011;8266;52.150;4.768;2024-03-23T19:03:28;0.10;;;0.10;;
16314;SDS011;8266;52.150;4.768;2024-03-23T19:05:55;0.10;;;0.10;;
16314;SDS011;8266;52.150;4.768;2024-03-23T19:08:23;0.10;;;0.10;;
16314;SDS011;8266;52.150;4.768;2024-03-23T19:10:51;0.10;;;0.10;;
16314;SDS011;8266;52.150;4.768;2024-03-23T19:13:19;0.10;;;0.10;;
16314;SDS011;8266;52.150;4.768;2024-03-23T19:15:46;0.10;;;0.10;;
16314;SDS011;8266;52.150;4.768;2024-03-23T19:18:13;0.10;;;0.10;;
16314;SDS011;8266;52.150;4.768;2024-03-23T19:20:40;0.10;;;0.10;;
16314;SDS011;8266;52.150;4.768;2024-03-23T19:23:06;0.10;;;0.10;;
16314;SDS011;8266;52.150;4.768;2024-03-23T19:25:33;0.10;;;0.10;;
16314;SDS011;8266;52.150;4.768;2024-03-23T19:28:00;0.10;;;0.10;;
16314;SDS011;8266;52.150;4.768;2024-03-23T19:30:29;0.10;;;0.10;;
16314;SDS011;8266;52.150;4.768;2024-03-23T19:32:55;0.10;;;0.10;;
16314;SDS011;8266;52.150;4.768;2024-03-23T19:35:24;0.08;;;0.08;;
16314;SDS011;8266;52.150;4.768;2024-03-23T19:37:50;0.10;;;0.10;;
16314;SDS011;8266;52.150;4.768;2024-03-23T19:40:17;0.10;;;0.10;;
16314;SDS011;8266;52.150;4.768;2024-03-23T19:42:43;0.10;;;0.10;;
16314;SDS011;8266;52.150;4.768;2024-03-23T19:45:10;0.10;;;0.10;;
16314;SDS011;8266;52.150;4.768;2024-03-23T19:47:43;0.10;;;0.10;;
16314;SDS011;8266;52.150;4.768;2024-03-23T19:50:10;0.10;;;0.10;;
16314;SDS011;8266;52.150;4.768;2024-03-23T19:52:36;0.10;;;0.10;;
16314;SDS011;8266;52.150;4.768;2024-03-23T19:55:03;0.10;;;0.10;;
16314;SDS011;8266;52.150;4.768;2024-03-23T19:57:31;0.10;;;0.10;;
16314;SDS011;8266;52.150;4.768;2024-03-23T20:00:00;0.10;;;0.10;;
16314;SDS011;8266;52.150;4.768;2024-03-23T20:02:27;0.10;;;0.10;;
16314;SDS011;8266;52.150;4.768;2024-03-23T20:04:55;0.10;;;0.10;;
16314;SDS011;8266;52.150;4.768;2024-03-23T20:07:21;0.10;;;0.10;;
16314;SDS011;8266;52.150;4.768;2024-03-23T20:09:48;0.10;;;0.10;;
16314;SDS011;8266;52.150;4.768;2024-03-23T20:12:14;0.10;;;0.10;;
16314;SDS011;8266;52.150;4.768;2024-03-23T20:14:41;0.10;;;0.10;;
16314;SDS011;8266;52.150;4.768;2024-03-23T20:17:10;0.20;;;0.20;;
16314;SDS011;8266;52.150;4.768;2024-03-23T20:22:32;0.10;;;0.10;;
16314;SDS011;8266;52.150;4.768;2024-03-23T20:41:17;0.20;;;0.20;;
16314;SDS011;8266;52.150;4.768;2024-03-23T20:50:21;0.10;;;0.10;;
16314;SDS011;8266;52.150;4.768;2024-03-23T22:05:00;0.10;;;0.10;;
16314;SDS011;8266;52.150;4.768;2024-03-23T22:20:57;0.10;;;0.10;;
16314;SDS011;8266;52.150;4.768;2024-03-23T22:23:35;0.10;;;0.10;;
16314;SDS011;8266;52.150;4.768;2024-03-23T22:36:13;0.10;;;0.10;;
16314;SDS011;8266;52.150;4.768;2024-03-23T22:38:54;0.17;;;0.17;;
16314;SDS011;8266;52.150;4.768;2024-03-23T22:48:16;0.10;;;0.10;;
16314;SDS011;8266;52.150;4.768;2024-03-23T22:50:46;0.10;;;0.10;;
16314;SDS011;8266;52.150;4.768;2024-03-23T23:06:18;0.20;;;0.20;;
16314;SDS011;8266;52.150;4.768;2024-03-23T23:08:54;0.15;;;0.15;;
16314;SDS011;8266;52.150;4.768;2024-03-23T23:12:03;0.15;;;0.15;;
16314;SDS011;8266;52.150;4.768;2024-03-23T23:14:52;0.10;;;0.10;;
16314;SDS011;8266;52.150;4.768;2024-03-23T23:33:43;0.10;;;0.10;;
